createdAt,value
2023-02-02T00:00:01.832Z,4.92
2023-02-02T00:15:02.510Z,5
2023-02-02T00:30:02.271Z,4.91
2023-02-02T00:45:01.929Z,4.8
2023-02-02T01:00:01.633Z,4.9
2023-02-02T01:15:02.282Z,4.89
2023-02-02T01:30:02.005Z,4.78
2023-02-02T01:45:01.706Z,4.79
2023-02-02T02:00:02.362Z,4.7
2023-02-02T02:15:01.983Z,4.68
2023-02-02T02:30:01.695Z,4.84
2023-02-02T02:45:02.380Z,4.86
2023-02-02T03:00:02.071Z,5
2023-02-02T03:15:01.722Z,4.76
2023-02-02T03:30:02.440Z,4.88
2023-02-02T03:45:02.086Z,4.88
2023-02-02T04:00:01.794Z,4.97
2023-02-02T04:15:02.458Z,5.08
2023-02-02T04:30:02.100Z,5.21
2023-02-02T04:45:01.741Z,5.82
2023-02-02T05:00:02.426Z,5.49
2023-02-02T05:15:02.066Z,5.62
2023-02-02T05:30:02.334Z,5.72
2023-02-02T05:45:01.987Z,5.67
2023-02-02T06:00:01.672Z,5.72
2023-02-02T06:15:02.368Z,5.3
2023-02-02T06:30:02.024Z,5.38
2023-02-02T06:45:01.702Z,5.4
2023-02-02T07:00:02.528Z,5.65
2023-02-02T07:15:02.198Z,5.44
2023-02-02T07:30:01.911Z,5.44
2023-02-02T07:45:27.003Z,5.39
2023-02-02T08:00:02.509Z,5.36
2023-02-02T08:15:02.224Z,5.4
2023-02-02T08:30:01.981Z,5.4
2023-02-02T08:46:03.094Z,5.47
2023-02-02T09:00:01.654Z,5.51
2023-02-02T09:15:02.337Z,5.58
2023-02-02T09:30:02.042Z,5.64
2023-02-02T09:45:01.772Z,5.73
2023-02-02T10:00:02.472Z,5.8
2023-02-02T10:15:02.237Z,5.87
2023-02-02T10:30:02.067Z,5.94
2023-02-02T10:45:01.757Z,5.99
2023-02-02T11:00:02.454Z,6.05
2023-02-02T11:15:02.220Z,6.1
2023-02-02T11:30:02.002Z,6.19
2023-02-02T11:45:01.705Z,6.29
2023-02-02T12:00:02.385Z,6.39
2023-02-02T12:15:02.096Z,6.46
2023-02-02T12:30:01.788Z,6.49
2023-02-02T12:45:02.500Z,6.55
2023-02-02T13:00:02.175Z,6.57
2023-02-02T13:15:01.845Z,6.59
2023-02-02T13:30:02.550Z,6.63
2023-02-02T13:45:02.212Z,6.65
2023-02-02T14:00:01.892Z,6.67
2023-02-02T14:15:02.557Z,6.69
2023-02-02T14:30:02.268Z,6.65
2023-02-02T14:45:01.897Z,6.61
2023-02-02T15:00:02.585Z,6.6
2023-02-02T15:15:02.222Z,6.56
2023-02-02T15:30:01.988Z,6.53
2023-02-02T15:45:01.699Z,6.47
2023-02-02T16:00:02.385Z,6.49
2023-02-02T16:15:02.001Z,6.48
2023-02-02T16:30:01.740Z,6.45
2023-02-02T16:45:02.394Z,6.45
2023-02-02T17:00:02.079Z,6.46
2023-02-02T17:15:01.699Z,6.48
2023-02-02T17:30:02.414Z,6.47
2023-02-02T17:45:02.064Z,6.47
2023-02-02T18:00:01.765Z,6.52
2023-02-02T18:15:02.430Z,6.54
2023-02-02T18:30:02.117Z,6.61
2023-02-02T18:45:01.860Z,6.67
2023-02-02T19:00:02.563Z,6.75
2023-02-02T19:15:02.267Z,6.89
2023-02-02T19:30:03.906Z,7
2023-02-02T19:45:02.255Z,7.18
2023-02-02T20:00:01.917Z,7.29
2023-02-02T20:15:01.616Z,7.35
2023-02-02T20:30:02.313Z,7.45
2023-02-02T20:45:01.966Z,7.51
2023-02-02T21:00:01.659Z,7.63
2023-02-02T21:15:02.295Z,7.7
2023-02-02T21:30:02.066Z,7.73
2023-02-02T21:45:01.662Z,7.84
2023-02-02T22:00:02.327Z,7.94
2023-02-02T22:15:01.983Z,7.94
2023-02-02T22:30:01.669Z,8.09
2023-02-02T22:45:02.293Z,8.12
2023-02-02T23:00:01.969Z,8.11
2023-02-02T23:15:01.618Z,8.1
2023-02-02T23:30:02.324Z,8.16
2023-02-02T23:45:01.938Z,8.22
